Time;durP1;ratioP1;P1;durP2;ratioP2;P2;SDS_P1;SDS_P2;PMS_P1;PMS_P2;Temp;Humidity;BMP_temperature;BMP_pressure;BME280_temperature;BME280_humidity;BME280_pressure;Samples;Min_cycle;Max_cycle;Signal;HPM_P1;HPM_P2
2021/08/04 00:01:51;;;;;;;2.60;1.02;;;21.10;59.10;;;;;;5076708;28;20390;-59
2021/08/04 00:04:17;;;;;;;2.13;1.17;;;21.10;59.10;;;;;;5073314;28;20372;-59
2021/08/04 00:06:43;;;;;;;2.97;1.40;;;21.10;59.20;;;;;;5073411;28;20020;-59
2021/08/04 00:09:08;;;;;;;4.32;1.63;;;21.10;59.20;;;;;;5073138;28;20388;-58
2021/08/04 00:11:34;;;;;;;3.08;1.30;;;21.10;59.20;;;;;;5072888;28;20070;-59
2021/08/04 00:14:00;;;;;;;2.10;1.10;;;21.10;59.20;;;;;;5073100;28;20078;-59
2021/08/04 00:16:26;;;;;;;2.90;1.35;;;21.10;59.20;;;;;;5072892;28;20016;-58
2021/08/04 00:18:51;;;;;;;2.75;1.42;;;21.10;59.20;;;;;;5072642;28;20037;-59
2021/08/04 00:21:17;;;;;;;2.65;1.10;;;21.10;59.20;;;;;;5072971;28;20024;-58
2021/08/04 00:23:42;;;;;;;2.22;1.08;;;21.10;59.20;;;;;;5073079;28;20468;-58
2021/08/04 00:26:08;;;;;;;2.53;1.00;;;21.10;59.20;;;;;;5072620;28;20445;-58
2021/08/04 00:28:33;;;;;;;3.50;1.42;;;21.10;59.20;;;;;;5072802;28;20100;-59
2021/08/04 00:30:59;;;;;;;1.98;0.90;;;21.10;59.20;;;;;;5072756;28;20116;-59
2021/08/04 00:33:24;;;;;;;3.28;1.40;;;21.10;59.20;;;;;;5072441;28;20104;-59
2021/08/04 00:35:50;;;;;;;3.55;1.33;;;21.10;59.20;;;;;;5072964;28;20123;-59
2021/08/04 00:38:16;;;;;;;2.35;1.00;;;21.10;59.20;;;;;;5072631;28;20024;-59
2021/08/04 00:40:42;;;;;;;2.33;1.23;;;21.10;59.20;;;;;;5072747;28;20029;-59
2021/08/04 00:43:08;;;;;;;3.40;1.38;;;21.10;59.20;;;;;;5072660;28;20059;-58
2021/08/04 00:45:34;;;;;;;3.53;1.30;;;21.10;59.30;;;;;;5072480;28;20063;-58
2021/08/04 00:48:00;;;;;;;1.80;1.20;;;21.10;59.30;;;;;;5072498;28;20510;-59
2021/08/04 00:50:26;;;;;;;1.77;1.00;;;21.10;59.20;;;;;;5072556;28;20028;-59
2021/08/04 00:52:51;;;;;;;2.95;1.30;;;21.10;59.20;;;;;;5072795;28;20020;-59
2021/08/04 00:55:17;;;;;;;2.47;1.17;;;21.10;59.20;;;;;;5074837;28;20039;-58
2021/08/04 00:57:42;;;;;;;3.60;1.20;;;21.10;59.30;;;;;;5076421;28;20032;-58
2021/08/04 01:00:10;;;;;;;2.42;1.20;;;21.00;59.20;;;;;;5076517;28;20036;-58
2021/08/04 01:02:46;;;;;;;3.47;1.20;;;21.00;59.30;;;;;;5076836;28;20108;-59
2021/08/04 01:05:25;;;;;;;2.90;1.27;;;21.00;59.30;;;;;;5076424;28;20020;-58
2021/08/04 01:08:12;;;;;;;3.80;1.40;;;21.00;59.30;;;;;;5076157;28;20024;-58
2021/08/04 01:10:42;;;;;;;4.03;1.70;;;21.00;59.30;;;;;;5076175;28;20039;-58
2021/08/04 01:13:29;;;;;;;2.13;1.00;;;21.00;59.30;;;;;;5075989;28;20047;-59
2021/08/04 01:16:10;;;;;;;2.55;1.40;;;21.00;59.30;;;;;;5076056;28;20169;-59
2021/08/04 01:18:41;;;;;;;3.10;1.35;;;21.00;59.30;;;;;;5076286;28;20043;-58
2021/08/04 01:21:08;;;;;;;2.13;1.20;;;21.00;59.30;;;;;;5076104;28;20026;-59
2021/08/04 01:23:41;;;;;;;3.80;1.50;;;21.00;59.30;;;;;;5076016;28;20036;-58
2021/08/04 01:26:39;;;;;;;5.65;1.58;;;21.00;59.30;;;;;;5081192;28;20017;-60
2021/08/04 01:29:18;;;;;;;3.97;1.40;;;21.00;59.40;;;;;;5075903;28;20476;-60
2021/08/04 01:31:47;;;;;;;2.75;1.27;;;21.00;59.30;;;;;;5075815;28;20017;-60
2021/08/04 01:34:17;;;;;;;2.63;1.48;;;21.00;59.30;;;;;;5075708;28;20174;-59
2021/08/04 01:36:43;;;;;;;3.80;1.73;;;21.00;59.40;;;;;;5075799;28;20093;-60
2021/08/04 01:39:10;;;;;;;2.30;1.23;;;21.00;59.30;;;;;;5075796;28;20119;-59
2021/08/04 01:41:38;;;;;;;2.55;1.10;;;21.00;59.40;;;;;;5075962;28;20033;-59
2021/08/04 01:44:05;;;;;;;3.22;1.30;;;21.00;59.40;;;;;;5075612;28;20060;-59
2021/08/04 01:46:31;;;;;;;2.17;1.25;;;21.00;59.40;;;;;;5075495;28;20028;-59
2021/08/04 01:49:00;;;;;;;3.72;1.48;;;21.00;59.40;;;;;;5075928;28;20036;-60
2021/08/04 01:51:26;;;;;;;3.08;1.15;;;21.00;59.40;;;;;;5076848;28;20486;-60
2021/08/04 01:53:52;;;;;;;3.33;1.45;;;21.00;59.40;;;;;;5079150;28;20037;-59
2021/08/04 01:56:18;;;;;;;3.35;1.30;;;21.00;59.50;;;;;;5075339;28;20024;-59
2021/08/04 01:58:44;;;;;;;3.47;1.33;;;20.90;59.50;;;;;;5075444;28;20087;-59
2021/08/04 02:01:10;;;;;;;2.45;1.20;;;20.90;59.50;;;;;;5075241;28;20060;-60
2021/08/04 02:03:36;;;;;;;3.00;1.40;;;20.90;59.60;;;;;;5075161;28;20496;-60
2021/08/04 02:06:12;;;;;;;3.85;1.50;;;20.90;59.60;;;;;;5075232;28;20127;-60
2021/08/04 02:08:47;;;;;;;2.53;1.35;;;20.90;59.60;;;;;;5075078;28;20039;-59
2021/08/04 02:11:26;;;;;;;3.00;1.60;;;20.90;59.60;;;;;;5075064;28;20024;-60
2021/08/04 02:14:04;;;;;;;2.45;1.33;;;20.90;59.70;;;;;;5074981;28;20024;-60
2021/08/04 02:17:07;;;;;;;2.45;1.38;;;20.90;59.70;;;;;;5075271;28;20024;-59
2021/08/04 02:19:42;;;;;;;2.47;1.30;;;20.90;59.70;;;;;;5074810;28;20033;-59
2021/08/04 02:22:15;;;;;;;2.83;1.20;;;20.90;59.70;;;;;;5074862;28;20036;-60
2021/08/04 02:24:47;;;;;;;3.55;1.73;;;20.90;59.70;;;;;;5075129;28;20105;-59
2021/08/04 02:27:14;;;;;;;2.85;1.40;;;20.90;59.70;;;;;;5075020;28;20025;-60
2021/08/04 02:29:42;;;;;;;2.80;1.60;;;20.90;59.60;;;;;;5074777;28;20502;-60
2021/08/04 02:32:08;;;;;;;3.67;1.52;;;20.80;59.70;;;;;;5074885;28;20039;-60
2021/08/04 02:34:34;;;;;;;3.15;1.23;;;20.90;59.70;;;;;;5074420;28;20036;-60
2021/08/04 02:37:00;;;;;;;3.63;1.55;;;20.80;59.70;;;;;;5074554;28;20033;-60
2021/08/04 02:39:26;;;;;;;3.17;1.50;;;20.90;59.70;;;;;;5074305;28;20116;-60
2021/08/04 02:41:52;;;;;;;3.30;1.60;;;20.90;59.70;;;;;;5074510;28;20025;-60
2021/08/04 02:44:20;;;;;;;2.78;1.50;;;20.80;59.70;;;;;;5074388;28;20480;-60
2021/08/04 02:46:46;;;;;;;3.03;1.48;;;20.80;59.70;;;;;;5074334;28;20487;-60
2021/08/04 02:49:14;;;;;;;3.60;1.63;;;20.80;59.70;;;;;;5074270;28;20028;-59
2021/08/04 02:51:41;;;;;;;3.25;1.35;;;20.80;59.70;;;;;;5074206;28;20472;-59
2021/08/04 02:54:07;;;;;;;3.75;1.50;;;20.80;59.70;;;;;;5074127;28;20519;-60
2021/08/04 02:56:32;;;;;;;3.38;1.60;;;20.80;59.70;;;;;;5074140;28;20048;-60
2021/08/04 02:58:58;;;;;;;3.17;1.45;;;20.80;59.70;;;;;;5074073;28;20032;-60
2021/08/04 03:01:24;;;;;;;3.95;1.63;;;20.80;59.70;;;;;;5074013;28;20371;-60
2021/08/04 03:03:49;;;;;;;2.60;1.38;;;20.80;59.80;;;;;;5074052;28;20563;-60
2021/08/04 03:06:15;;;;;;;2.65;1.40;;;20.80;59.80;;;;;;5073983;28;20236;-60
2021/08/04 03:08:40;;;;;;;3.05;1.40;;;20.80;59.80;;;;;;5072662;28;20033;-60
2021/08/04 03:11:07;;;;;;;2.33;1.23;;;20.80;59.80;;;;;;5074159;28;20013;-59
2021/08/04 03:13:33;;;;;;;3.47;1.48;;;20.80;59.80;;;;;;5073919;28;20036;-60
2021/08/04 03:15:59;;;;;;;3.35;1.33;;;20.80;59.80;;;;;;5080113;28;20019;-60
2021/08/04 03:18:25;;;;;;;3.38;1.40;;;20.70;59.80;;;;;;5073158;28;20115;-59
2021/08/04 03:20:50;;;;;;;3.35;1.48;;;20.80;59.80;;;;;;5073747;28;20032;-59
2021/08/04 03:23:16;;;;;;;3.95;1.33;;;20.70;59.90;;;;;;5076946;28;20005;-60
2021/08/04 03:25:41;;;;;;;3.33;1.50;;;20.70;59.90;;;;;;5077032;28;20059;-60
2021/08/04 03:28:07;;;;;;;3.03;1.50;;;20.70;59.90;;;;;;5073679;28;20024;-60
2021/08/04 03:30:32;;;;;;;4.20;1.63;;;20.80;59.90;;;;;;5073545;28;20020;-60
2021/08/04 03:32:58;;;;;;;3.30;1.58;;;20.70;59.90;;;;;;5073208;28;20037;-60
2021/08/04 03:35:24;;;;;;;3.03;1.40;;;20.70;60.00;;;;;;5077823;28;20045;-60
2021/08/04 03:37:49;;;;;;;3.28;1.45;;;20.70;60.00;;;;;;5073330;28;20063;-60
2021/08/04 03:40:15;;;;;;;2.97;1.45;;;20.70;60.00;;;;;;5073268;28;20036;-60
2021/08/04 03:42:40;;;;;;;3.53;1.48;;;20.70;60.00;;;;;;5073268;28;20043;-60
2021/08/04 03:45:07;;;;;;;3.65;1.80;;;20.70;60.00;;;;;;5073627;28;20024;-58
2021/08/04 03:47:32;;;;;;;4.30;1.85;;;20.70;60.10;;;;;;5073161;28;20063;-59
2021/08/04 03:49:58;;;;;;;2.67;1.60;;;20.60;60.10;;;;;;5073172;28;20424;-60
2021/08/04 03:52:23;;;;;;;2.90;1.38;;;20.70;60.10;;;;;;5073216;28;20017;-59
2021/08/04 03:54:49;;;;;;;3.55;1.50;;;20.60;60.10;;;;;;5073156;28;20024;-59
2021/08/04 03:57:15;;;;;;;2.70;1.45;;;20.60;60.20;;;;;;5073144;28;20023;-60
2021/08/04 03:59:41;;;;;;;3.85;1.90;;;20.60;60.20;;;;;;5073134;28;20043;-60
2021/08/04 04:02:06;;;;;;;3.55;1.70;;;20.60;60.20;;;;;;5073272;28;20017;-60
2021/08/04 04:04:32;;;;;;;3.40;1.60;;;20.70;60.20;;;;;;5073538;28;20028;-59
2021/08/04 04:06:58;;;;;;;3.72;1.50;;;20.60;60.20;;;;;;5072999;28;20376;-60
2021/08/04 04:09:23;;;;;;;3.97;1.60;;;20.60;60.10;;;;;;5073197;28;20025;-60
2021/08/04 04:11:49;;;;;;;3.85;1.80;;;20.60;60.20;;;;;;5072935;28;20025;-60
2021/08/04 04:14:14;;;;;;;3.17;1.60;;;20.50;60.30;;;;;;5072780;28;20484;-60
2021/08/04 04:16:40;;;;;;;2.95;1.30;;;20.60;60.30;;;;;;5072853;28;20024;-60
2021/08/04 04:19:08;;;;;;;2.72;1.40;;;20.60;60.30;;;;;;5072762;28;20442;-60
2021/08/04 04:21:34;;;;;;;3.95;1.60;;;20.60;60.30;;;;;;5073082;28;20021;-60
2021/08/04 04:23:59;;;;;;;3.53;1.67;;;20.50;60.30;;;;;;5072823;28;20031;-59
2021/08/04 04:26:25;;;;;;;3.58;1.48;;;20.60;60.30;;;;;;5072908;28;20422;-60
2021/08/04 04:28:50;;;;;;;2.78;1.35;;;20.60;60.30;;;;;;5072589;28;20112;-60
2021/08/04 04:31:16;;;;;;;3.67;1.52;;;20.50;60.20;;;;;;5076893;28;20111;-59
2021/08/04 04:33:41;;;;;;;3.05;1.48;;;20.50;60.30;;;;;;5076855;28;20032;-59
2021/08/04 04:36:07;;;;;;;3.08;1.27;;;20.50;60.30;;;;;;5076847;28;20075;-58
2021/08/04 04:38:32;;;;;;;2.80;1.52;;;20.50;60.30;;;;;;5076697;28;20028;-59
2021/08/04 04:40:59;;;;;;;3.40;1.58;;;20.50;60.30;;;;;;5076677;28;20388;-60
2021/08/04 04:43:24;;;;;;;3.92;1.77;;;20.50;60.30;;;;;;5076910;28;20112;-60
2021/08/04 04:45:50;;;;;;;2.88;1.33;;;20.50;60.30;;;;;;5076654;28;20108;-60
2021/08/04 04:48:15;;;;;;;3.42;1.83;;;20.50;60.40;;;;;;5076570;28;20111;-60
2021/08/04 04:50:41;;;;;;;3.50;1.67;;;20.50;60.30;;;;;;5076495;28;20032;-60
2021/08/04 04:53:06;;;;;;;2.85;1.40;;;20.50;60.30;;;;;;5076754;28;20108;-59
2021/08/04 04:55:32;;;;;;;3.38;1.63;;;20.50;60.30;;;;;;5076494;28;20357;-59
2021/08/04 04:57:57;;;;;;;3.13;1.50;;;20.50;60.40;;;;;;5076537;28;20056;-59
2021/08/04 05:00:23;;;;;;;3.03;1.45;;;20.50;60.40;;;;;;5076390;28;20063;-60
2021/08/04 05:02:48;;;;;;;2.65;1.50;;;20.50;60.40;;;;;;5076303;28;20027;-60
2021/08/04 05:05:14;;;;;;;2.95;1.50;;;20.50;60.30;;;;;;5076330;28;20029;-59
2021/08/04 05:07:39;;;;;;;2.90;1.48;;;20.50;60.40;;;;;;5076228;28;20028;-59
2021/08/04 05:10:05;;;;;;;3.90;1.60;;;20.50;60.40;;;;;;5076081;28;20158;-59
2021/08/04 05:12:31;;;;;;;2.97;1.50;;;20.50;60.30;;;;;;5076338;28;20021;-59
2021/08/04 05:14:57;;;;;;;3.75;1.58;;;20.50;60.40;;;;;;5076013;28;20044;-59
2021/08/04 05:17:22;;;;;;;3.78;1.65;;;20.50;60.40;;;;;;5076082;28;20457;-59
2021/08/04 05:19:49;;;;;;;2.88;1.45;;;20.50;60.40;;;;;;5075856;28;20038;-59
2021/08/04 05:22:14;;;;;;;3.15;1.50;;;20.50;60.40;;;;;;5075967;28;20017;-59
2021/08/04 05:24:40;;;;;;;3.25;1.70;;;20.50;60.40;;;;;;5083323;28;20047;-59
2021/08/04 05:27:05;;;;;;;3.03;1.40;;;20.50;60.30;;;;;;5076451;28;20028;-59
2021/08/04 05:29:31;;;;;;;3.15;1.60;;;20.50;60.30;;;;;;5075906;28;20086;-59
2021/08/04 05:31:56;;;;;;;3.33;1.75;;;20.50;60.30;;;;;;5075767;28;20024;-60
2021/08/04 05:34:22;;;;;;;3.60;1.63;;;20.50;60.40;;;;;;5075685;28;20380;-59
2021/08/04 05:36:47;;;;;;;3.08;1.40;;;20.50;60.30;;;;;;5075725;28;20021;-59
2021/08/04 05:39:13;;;;;;;3.45;1.33;;;20.50;60.30;;;;;;5075651;28;20047;-59
2021/08/04 05:41:39;;;;;;;2.85;1.55;;;20.50;60.30;;;;;;5075248;28;20032;-59
2021/08/04 05:44:05;;;;;;;3.25;1.58;;;20.50;60.40;;;;;;5075586;28;20029;-59
2021/08/04 05:46:30;;;;;;;2.60;1.60;;;20.50;60.30;;;;;;5075526;28;20299;-59
2021/08/04 05:48:56;;;;;;;4.22;1.88;;;20.50;60.40;;;;;;5075519;28;20114;-59
2021/08/04 05:51:21;;;;;;;3.95;1.63;;;20.50;60.40;;;;;;5075545;28;20390;-59
2021/08/04 05:53:47;;;;;;;3.20;1.75;;;20.50;60.40;;;;;;5075697;28;20024;-59
2021/08/04 05:56:13;;;;;;;3.40;1.52;;;20.50;60.30;;;;;;5075413;28;20116;-60
2021/08/04 05:58:38;;;;;;;4.07;1.52;;;20.60;60.30;;;;;;5075258;28;20036;-59
2021/08/04 06:01:03;;;;;;;3.42;1.60;;;20.50;60.20;;;;;;5075349;28;20033;-59
2021/08/04 06:03:29;;;;;;;2.85;1.38;;;20.60;60.30;;;;;;5075317;28;20107;-59
2021/08/04 06:05:54;;;;;;;2.58;1.60;;;20.50;60.30;;;;;;5075184;28;20104;-59
2021/08/04 06:08:20;;;;;;;2.80;1.55;;;20.60;60.20;;;;;;5075398;28;20519;-59
2021/08/04 06:10:46;;;;;;;2.40;1.45;;;20.60;60.20;;;;;;5075310;28;20037;-59
2021/08/04 06:13:11;;;;;;;2.65;1.30;;;20.60;60.20;;;;;;5075071;28;20099;-60
2021/08/04 06:15:37;;;;;;;2.78;1.40;;;20.60;60.20;;;;;;5075237;28;20020;-59
2021/08/04 06:18:03;;;;;;;3.42;1.50;;;20.60;60.10;;;;;;5074794;28;20404;-59
2021/08/04 06:20:28;;;;;;;3.67;1.70;;;20.60;60.10;;;;;;5074879;28;20035;-59
2021/08/04 06:22:54;;;;;;;3.20;1.50;;;20.60;60.00;;;;;;5074818;28;20034;-62
2021/08/04 06:25:19;;;;;;;4.43;1.80;;;20.70;60.00;;;;;;5075054;28;20029;-59
2021/08/04 06:27:45;;;;;;;3.97;1.40;;;20.70;59.90;;;;;;5074920;28;20066;-59
2021/08/04 06:30:10;;;;;;;2.97;1.38;;;20.70;59.90;;;;;;5074940;28;20032;-59
2021/08/04 06:32:36;;;;;;;3.00;1.67;;;20.70;59.80;;;;;;5074716;28;20111;-59
2021/08/04 06:35:02;;;;;;;2.88;1.45;;;20.80;59.70;;;;;;5074254;28;20064;-59
2021/08/04 06:37:27;;;;;;;3.40;1.38;;;20.70;59.60;;;;;;5074881;28;20020;-59
2021/08/04 06:39:53;;;;;;;2.58;1.27;;;20.80;59.70;;;;;;5074615;28;20043;-59
2021/08/04 06:42:19;;;;;;;3.17;1.27;;;20.80;59.70;;;;;;5074538;28;20028;-59
2021/08/04 06:44:44;;;;;;;2.95;1.75;;;20.80;59.70;;;;;;5080223;28;20052;-59
2021/08/04 06:47:10;;;;;;;2.92;1.60;;;20.80;59.60;;;;;;5074549;28;20036;-59
2021/08/04 06:49:35;;;;;;;3.15;1.45;;;20.80;59.60;;;;;;5074408;28;20051;-59
2021/08/04 06:52:01;;;;;;;2.83;1.58;;;20.80;59.70;;;;;;5073523;28;20035;-58
2021/08/04 06:54:27;;;;;;;3.55;1.67;;;20.80;59.60;;;;;;5074414;28;20028;-59
2021/08/04 06:56:52;;;;;;;3.08;1.40;;;20.80;59.60;;;;;;5074076;28;20381;-60
2021/08/04 06:59:18;;;;;;;3.47;1.50;;;20.90;59.50;;;;;;5074073;28;20043;-59
2021/08/04 07:01:47;;;;;;;2.67;1.33;;;20.80;59.50;;;;;;5074266;28;20494;-59
2021/08/04 07:04:14;;;;;;;3.53;1.55;;;20.90;59.50;;;;;;5074271;28;20361;-59
2021/08/04 07:07:00;;;;;;;3.05;1.40;;;20.80;59.40;;;;;;5053529;28;20146;-60
2021/08/04 07:09:25;;;;;;;3.75;1.40;;;20.90;59.40;;;;;;5053999;28;20029;-58
2021/08/04 07:11:51;;;;;;;4.05;1.40;;;20.90;59.40;;;;;;5053955;28;20032;-59
2021/08/04 07:14:17;;;;;;;2.53;1.30;;;20.90;59.30;;;;;;5054091;28;20036;-59
2021/08/04 07:16:44;;;;;;;4.07;1.90;;;20.90;59.30;;;;;;5052641;28;20079;-59
2021/08/04 07:19:10;;;;;;;2.20;1.30;;;20.90;59.30;;;;;;5051335;28;20132;-59
2021/08/04 07:21:37;;;;;;;2.83;1.35;;;21.00;59.30;;;;;;5048526;28;20063;-58
2021/08/04 07:24:03;;;;;;;2.97;1.40;;;20.90;59.30;;;;;;5048390;28;20036;-58
2021/08/04 07:26:28;;;;;;;3.00;1.20;;;20.90;59.40;;;;;;5053603;28;20020;-59
2021/08/04 07:28:56;;;;;;;2.53;1.25;;;21.00;59.30;;;;;;5052755;28;20107;-59
2021/08/04 07:31:22;;;;;;;2.53;1.20;;;21.00;59.30;;;;;;5049682;28;20543;-59
2021/08/04 07:33:47;;;;;;;3.38;1.65;;;21.00;59.30;;;;;;5047786;28;20086;-59
2021/08/04 07:36:13;;;;;;;3.67;1.52;;;21.00;59.40;;;;;;5055511;28;20044;-59
2021/08/04 07:38:38;;;;;;;2.47;1.20;;;21.00;59.30;;;;;;5056094;28;20039;-59
2021/08/04 07:41:06;;;;;;;3.00;1.58;;;21.00;59.40;;;;;;5051684;28;20037;-59
2021/08/04 07:43:31;;;;;;;2.42;1.30;;;21.00;59.40;;;;;;5046506;28;20036;-59
2021/08/04 07:45:57;;;;;;;3.28;1.30;;;21.00;59.30;;;;;;5052317;28;20047;-59
2021/08/04 07:48:22;;;;;;;2.85;1.30;;;21.00;59.30;;;;;;5052508;28;20463;-59
2021/08/04 07:50:48;;;;;;;2.70;1.45;;;21.00;59.30;;;;;;5052177;28;20028;-59
2021/08/04 07:53:14;;;;;;;3.65;1.60;;;21.00;59.20;;;;;;5044654;28;20025;-59
2021/08/04 07:55:39;;;;;;;3.00;1.48;;;21.10;59.20;;;;;;5052446;28;20017;-58
2021/08/04 07:58:05;;;;;;;2.85;1.33;;;21.00;59.20;;;;;;5052486;28;20067;-59
2021/08/04 08:00:30;;;;;;;2.42;1.33;;;21.00;59.20;;;;;;5052256;28;20032;-59
2021/08/04 08:02:57;;;;;;;3.60;1.50;;;21.10;59.20;;;;;;5044739;28;20059;-59
2021/08/04 08:05:22;;;;;;;3.08;1.42;;;21.10;59.20;;;;;;5052677;28;20017;-60
2021/08/04 08:07:50;;;;;;;2.72;1.27;;;21.10;59.20;;;;;;5052360;28;20025;-59
2021/08/04 08:10:18;;;;;;;3.08;1.58;;;21.10;59.10;;;;;;5051091;28;20072;-59
2021/08/04 08:12:44;;;;;;;3.17;1.73;;;21.10;59.10;;;;;;5037365;28;20029;-60
2021/08/04 08:15:11;;;;;;;6.13;1.60;;;21.10;59.10;;;;;;5036836;28;20032;-60
2021/08/04 08:17:36;;;;;;;3.45;1.48;;;21.20;59.10;;;;;;5052301;28;20057;-59
2021/08/04 08:20:03;;;;;;;3.28;1.50;;;21.20;59.10;;;;;;5043085;28;20065;-60
2021/08/04 08:22:29;;;;;;;4.03;1.40;;;21.20;58.90;;;;;;5040705;28;20453;-59
2021/08/04 08:24:54;;;;;;;3.10;1.40;;;21.20;59.00;;;;;;5052943;28;20045;-60
2021/08/04 08:27:20;;;;;;;4.65;1.30;;;21.20;58.90;;;;;;5053000;28;20037;-57
2021/08/04 08:29:45;;;;;;;3.72;1.48;;;21.30;58.90;;;;;;5053660;28;20485;-60
2021/08/04 08:32:10;;;;;;;2.20;1.27;;;21.30;58.90;;;;;;5050990;28;20037;-59
2021/08/04 08:34:36;;;;;;;2.92;1.58;;;21.30;58.80;;;;;;5053499;28;20052;-58
2021/08/04 08:37:02;;;;;;;2.67;1.50;;;21.30;58.80;;;;;;5052336;28;20029;-57
2021/08/04 08:39:27;;;;;;;2.83;1.20;;;21.30;58.80;;;;;;5051824;28;20041;-58
2021/08/04 08:41:53;;;;;;;2.25;1.38;;;21.40;58.70;;;;;;5046043;28;20054;-57
2021/08/04 08:44:18;;;;;;;2.85;1.40;;;21.40;58.80;;;;;;5050186;28;20068;-58
2021/08/04 08:46:44;;;;;;;2.70;1.27;;;21.40;58.70;;;;;;5050544;28;20033;-58
2021/08/04 08:49:10;;;;;;;4.88;1.40;;;21.40;58.70;;;;;;5051756;28;20025;-58
2021/08/04 08:51:35;;;;;;;2.78;1.52;;;21.40;58.70;;;;;;5048392;28;20536;-58
2021/08/04 08:54:01;;;;;;;2.83;1.52;;;21.40;58.70;;;;;;5046471;28;20117;-58
2021/08/04 08:56:27;;;;;;;2.60;1.58;;;21.40;58.60;;;;;;5051646;28;20397;-60
2021/08/04 08:58:54;;;;;;;2.33;1.30;;;21.40;58.60;;;;;;5051894;28;20045;-59
2021/08/04 09:01:37;;;;;;;3.17;1.50;;;21.50;58.60;;;;;;5048207;28;20484;-60
2021/08/04 09:04:06;;;;;;;2.67;1.40;;;21.50;58.60;;;;;;5047306;28;20025;-60
2021/08/04 09:06:43;;;;;;;3.67;1.42;;;21.50;58.60;;;;;;5052097;28;20133;-59
2021/08/04 09:09:20;;;;;;;2.60;1.13;;;21.50;58.60;;;;;;5052075;28;20037;-59
2021/08/04 09:11:52;;;;;;;2.55;1.30;;;21.50;58.60;;;;;;5046378;28;20036;-59
2021/08/04 09:14:29;;;;;;;2.90;1.55;;;21.50;58.60;;;;;;5048776;28;20028;-59
2021/08/04 09:16:58;;;;;;;2.53;1.30;;;21.50;58.60;;;;;;5055200;28;20072;-59
2021/08/04 09:19:24;;;;;;;2.08;1.20;;;21.50;58.50;;;;;;5055617;28;20126;-59
2021/08/04 09:22:14;;;;;;;2.78;1.30;;;21.50;58.50;;;;;;5049609;28;20033;-60
2021/08/04 09:25:09;;;;;;;3.22;1.50;;;21.50;58.50;;;;;;5055265;28;20024;-59
2021/08/04 09:27:43;;;;;;;2.72;1.45;;;21.50;58.50;;;;;;5055046;28;20034;-58
2021/08/04 09:30:10;;;;;;;;;;;21.50;58.50;;;;;;5055481;28;20500;-58
2021/08/04 09:32:35;;;;;;;2.00;1.17;;;21.50;58.40;;;;;;5047695;28;19905;-58
2021/08/04 09:35:27;;;;;;;2.45;1.40;;;21.50;58.40;;;;;;5055039;28;20500;-59
2021/08/04 09:38:06;;;;;;;2.53;1.35;;;21.50;58.50;;;;;;5054948;28;20043;-58
2021/08/04 09:40:31;;;;;;;3.15;1.52;;;21.50;58.40;;;;;;5055753;28;20129;-58
2021/08/04 09:42:57;;;;;;;3.25;1.48;;;21.50;58.40;;;;;;5047366;28;20044;-59
2021/08/04 09:45:40;;;;;;;3.95;1.58;;;21.60;58.40;;;;;;5055607;28;20427;-58
2021/08/04 09:48:08;;;;;;;3.58;1.77;;;21.50;58.40;;;;;;5035429;28;20117;-61
2021/08/04 09:50:47;;;;;;;3.05;1.40;;;21.60;58.40;;;;;;5036361;28;20037;-58
2021/08/04 09:53:21;;;;;;;2.80;1.30;;;21.60;58.30;;;;;;5054915;28;20025;-59
2021/08/04 09:56:03;;;;;;;;;;;21.60;58.20;;;;;;5054837;28;20027;-60
2021/08/04 09:58:29;;;;;;;4.18;1.88;;;21.60;58.20;;;;;;5055097;28;19986;-60
2021/08/04 10:00:54;;;;;;;2.63;1.30;;;21.60;58.20;;;;;;5054786;28;20617;-59
2021/08/04 10:03:20;;;;;;;1.80;1.08;;;21.60;58.20;;;;;;5054173;28;20033;-58
2021/08/04 10:05:46;;;;;;;3.55;1.33;;;21.60;58.20;;;;;;5054358;28;20057;-59
2021/08/04 10:08:12;;;;;;;3.55;1.55;;;21.70;58.20;;;;;;5046111;28;20195;-58
2021/08/04 10:10:43;;;;;;;3.08;1.40;;;21.70;58.10;;;;;;5054823;28;20473;-58
2021/08/04 10:13:11;;;;;;;3.00;1.45;;;21.70;58.20;;;;;;5054618;28;20447;-58
2021/08/04 10:15:43;;;;;;;2.30;1.30;;;21.70;58.30;;;;;;5054559;28;20027;-58
2021/08/04 10:18:13;;;;;;;2.35;1.20;;;21.60;58.30;;;;;;5038206;28;20079;-58
2021/08/04 10:20:39;;;;;;;2.95;1.50;;;21.60;58.30;;;;;;5054709;28;20033;-59
2021/08/04 10:23:06;;;;;;;2.35;1.20;;;21.70;58.20;;;;;;5054899;28;20025;-58
2021/08/04 10:25:35;;;;;;;3.10;1.45;;;21.70;58.20;;;;;;5054200;28;20476;-58
2021/08/04 10:28:03;;;;;;;2.47;1.33;;;21.70;58.30;;;;;;5035543;28;20047;-58
2021/08/04 10:30:29;;;;;;;2.65;1.38;;;21.70;58.20;;;;;;5053824;28;20033;-59
2021/08/04 10:32:55;;;;;;;3.17;1.50;;;21.80;58.10;;;;;;5054042;28;20055;-59
2021/08/04 10:35:21;;;;;;;2.42;1.30;;;21.70;58.10;;;;;;5053930;28;20049;-59
2021/08/04 10:37:48;;;;;;;3.17;1.30;;;21.70;58.20;;;;;;5043268;28;20017;-59
2021/08/04 10:40:16;;;;;;;2.92;1.40;;;21.70;58.30;;;;;;5052726;28;20064;-59
2021/08/04 10:42:44;;;;;;;2.30;1.38;;;21.70;58.20;;;;;;5054172;28;20033;-60
2021/08/04 10:45:22;;;;;;;2.97;1.42;;;21.80;58.20;;;;;;5054308;28;20033;-59
2021/08/04 10:47:52;;;;;;;1.98;1.10;;;21.80;58.20;;;;;;5038260;28;20135;-59
2021/08/04 10:50:18;;;;;;;1.98;1.17;;;21.80;58.10;;;;;;5053846;28;20025;-59
2021/08/04 10:53:16;;;;;;;3.47;1.50;;;21.80;58.20;;;;;;5053980;28;20037;-60
2021/08/04 10:55:55;;;;;;;2.47;1.30;;;21.70;58.30;;;;;;5041067;28;20049;-59
2021/08/04 10:58:20;;;;;;;3.45;1.48;;;21.80;58.10;;;;;;5040998;28;20035;-59
2021/08/04 11:00:47;;;;;;;2.45;1.20;;;21.80;58.10;;;;;;5053911;28;20033;-59
2021/08/04 11:03:31;;;;;;;4.05;1.10;;;21.90;58.10;;;;;;5054057;28;20468;-58
2021/08/04 11:06:08;;;;;;;3.78;1.50;;;21.90;58.10;;;;;;5052401;28;20457;-58
2021/08/04 11:08:33;;;;;;;2.50;1.30;;;21.90;58.10;;;;;;5032677;28;20083;-59
2021/08/04 11:10:59;;;;;;;3.08;1.27;;;22.00;58.00;;;;;;5054614;28;20017;-59
2021/08/04 11:13:53;;;;;;;2.47;1.35;;;22.00;57.90;;;;;;5055112;28;20032;-59
2021/08/04 11:16:33;;;;;;;2.33;1.30;;;22.00;57.80;;;;;;5061035;28;20029;-59
2021/08/04 11:18:59;;;;;;;1.98;1.00;;;22.00;57.80;;;;;;5041146;28;20062;-59
2021/08/04 11:21:25;;;;;;;2.22;1.10;;;22.10;57.80;;;;;;5053257;28;20021;-59
2021/08/04 11:23:51;;;;;;;3.13;1.52;;;22.10;57.70;;;;;;5053172;28;20033;-60
2021/08/04 11:26:22;;;;;;;3.58;1.40;;;22.10;57.70;;;;;;5051872;28;20032;-59
2021/08/04 11:28:48;;;;;;;3.15;1.50;;;22.10;57.70;;;;;;5039583;28;20028;-59
2021/08/04 11:31:13;;;;;;;2.85;1.13;;;22.10;57.60;;;;;;5052409;28;20033;-59
2021/08/04 11:33:39;;;;;;;3.35;1.30;;;22.20;57.50;;;;;;5053094;28;20041;-58
2021/08/04 11:36:14;;;;;;;2.38;1.40;;;22.20;57.50;;;;;;5052692;28;20090;-59
2021/08/04 11:38:47;;;;;;;1.95;1.17;;;22.20;57.60;;;;;;5052311;28;20480;-59
2021/08/04 11:41:30;;;;;;;2.88;1.35;;;22.20;57.60;;;;;;5053310;28;20088;-58
2021/08/04 11:44:07;;;;;;;2.95;1.35;;;22.20;57.70;;;;;;5053417;28;20029;-58
2021/08/04 11:47:09;;;;;;;3.45;1.40;;;22.10;57.70;;;;;;5053262;28;20071;-58
2021/08/04 11:49:46;;;;;;;2.85;1.40;;;22.10;57.70;;;;;;5048871;28;20040;-58
2021/08/04 11:52:16;;;;;;;3.00;1.20;;;22.10;57.80;;;;;;5053284;28;20491;-58
2021/08/04 11:54:45;;;;;;;2.20;1.23;;;22.20;57.70;;;;;;5053173;28;20056;-58
2021/08/04 11:57:24;;;;;;;2.33;1.20;;;22.20;57.60;;;;;;5053480;28;20021;-58
2021/08/04 11:59:56;;;;;;;3.22;1.55;;;22.20;57.60;;;;;;5053298;28;20060;-58
2021/08/04 12:02:23;;;;;;;2.50;1.27;;;22.20;57.60;;;;;;5053197;28;20028;-58
2021/08/04 12:04:56;;;;;;;4.05;1.40;;;22.20;57.70;;;;;;5052930;28;20048;-58
2021/08/04 12:07:27;;;;;;;2.72;1.17;;;22.20;57.60;;;;;;5053223;28;20079;-58
2021/08/04 12:09:55;;;;;;;3.38;1.25;;;22.20;57.70;;;;;;5053078;28;20036;-58
2021/08/04 12:12:23;;;;;;;2.38;1.40;;;22.20;57.70;;;;;;5053093;28;20077;-58
2021/08/04 12:14:51;;;;;;;2.22;1.10;;;22.20;57.70;;;;;;5053260;28;20036;-58
2021/08/04 12:17:24;;;;;;;2.00;1.10;;;22.20;57.70;;;;;;5053208;28;20025;-58
2021/08/04 12:19:52;;;;;;;2.92;1.33;;;22.20;57.70;;;;;;5053217;28;20033;-58
2021/08/04 12:22:27;;;;;;;1.88;1.20;;;22.20;57.70;;;;;;5054207;28;20047;-58
2021/08/04 12:24:55;;;;;;;2.67;1.13;;;22.20;57.70;;;;;;5057252;28;20029;-58
2021/08/04 12:27:35;;;;;;;4.25;1.30;;;22.20;57.70;;;;;;5052860;28;20027;-59
2021/08/04 12:30:08;;;;;;;2.22;1.15;;;22.30;57.60;;;;;;5052776;28;20025;-58
2021/08/04 12:32:46;;;;;;;4.20;1.33;;;22.40;57.40;;;;;;5053050;28;20031;-59
2021/08/04 12:35:15;;;;;;;3.25;1.27;;;22.40;57.10;;;;;;5052473;28;20184;-59
2021/08/04 12:37:40;;;;;;;1.92;1.00;;;22.50;57.10;;;;;;5052728;28;20079;-58
2021/08/04 12:40:11;;;;;;;2.35;1.27;;;22.60;56.90;;;;;;5052538;28;20040;-58
2021/08/04 12:42:37;;;;;;;2.58;1.13;;;22.60;57.00;;;;;;5052567;28;20017;-59
2021/08/04 12:45:25;;;;;;;4.93;1.50;;;22.50;57.10;;;;;;5052529;28;20111;-58
2021/08/04 12:47:58;;;;;;;2.50;1.23;;;22.40;57.20;;;;;;5052596;28;20029;-58
2021/08/04 12:50:30;;;;;;;3.50;1.50;;;22.50;57.20;;;;;;5053576;28;20029;-58
2021/08/04 12:52:56;;;;;;;1.90;1.10;;;22.40;57.30;;;;;;5056479;28;20033;-58
2021/08/04 12:55:23;;;;;;;2.05;1.05;;;22.40;57.30;;;;;;5056784;28;20033;-58